createdAt,value
2018-07-01T00:00:58.010Z,0
2018-07-01T00:01:59.672Z,0
2018-07-01T00:03:01.326Z,0
2018-07-01T00:04:02.996Z,0
2018-07-01T00:05:04.656Z,0
2018-07-01T00:06:06.316Z,0
2018-07-01T00:07:07.961Z,0
2018-07-01T00:08:09.628Z,0
2018-07-01T00:09:11.279Z,0
2018-07-01T00:10:12.931Z,0
2018-07-01T00:11:14.586Z,0
2018-07-01T00:12:16.239Z,0
2018-07-01T00:13:17.881Z,0
2018-07-01T00:14:19.543Z,0
2018-07-01T00:15:21.196Z,0
2018-07-01T00:16:22.853Z,0
2018-07-01T00:17:24.511Z,0
2018-07-01T00:18:26.156Z,0
2018-07-01T00:19:27.814Z,0
2018-07-01T00:20:29.529Z,0
2018-07-01T00:21:31.234Z,0
2018-07-01T00:22:32.892Z,0
2018-07-01T00:23:34.537Z,0
2018-07-01T00:24:36.199Z,0
2018-07-01T00:25:37.982Z,0
2018-07-01T00:26:39.626Z,0
2018-07-01T00:27:41.278Z,0
2018-07-01T00:28:42.931Z,0
2018-07-01T00:29:44.588Z,0
2018-07-01T00:30:46.256Z,0
2018-07-01T00:31:47.913Z,0
2018-07-01T00:32:49.565Z,0
2018-07-01T00:33:51.230Z,0
2018-07-01T00:34:52.884Z,0
2018-07-01T00:35:54.548Z,0
2018-07-01T00:36:56.199Z,0
2018-07-01T00:37:57.875Z,0
2018-07-01T00:38:59.531Z,0
2018-07-01T00:40:01.196Z,0
2018-07-01T00:41:02.845Z,0
2018-07-01T00:42:04.512Z,0
2018-07-01T00:43:06.164Z,0
2018-07-01T00:44:07.829Z,0
2018-07-01T00:45:09.480Z,0
2018-07-01T00:46:11.144Z,0
2018-07-01T00:47:12.805Z,0
2018-07-01T00:48:14.456Z,0
2018-07-01T00:49:16.110Z,0
2018-07-01T00:50:17.768Z,0
2018-07-01T00:51:19.423Z,0
2018-07-01T00:52:21.099Z,0
2018-07-01T00:53:22.762Z,0
2018-07-01T00:54:24.409Z,0
2018-07-01T00:55:26.083Z,0
2018-07-01T00:56:27.729Z,0
2018-07-01T00:57:29.390Z,0
2018-07-01T00:58:31.049Z,0
2018-07-01T00:59:32.706Z,0
2018-07-01T01:00:34.361Z,0
2018-07-01T01:01:36.010Z,0
2018-07-01T01:02:37.668Z,0
2018-07-01T01:03:39.339Z,0
2018-07-01T01:04:40.990Z,0
2018-07-01T01:05:42.639Z,0
2018-07-01T01:06:44.297Z,0
2018-07-01T01:07:45.962Z,0
2018-07-01T01:08:47.656Z,0
2018-07-01T01:09:49.261Z,0
2018-07-01T01:10:50.910Z,0
2018-07-01T01:11:52.581Z,0
2018-07-01T01:12:54.233Z,0
2018-07-01T01:13:55.891Z,0
2018-07-01T01:14:57.543Z,0
2018-07-01T01:15:59.206Z,0
2018-07-01T01:17:00.863Z,0
2018-07-01T01:18:02.513Z,0
2018-07-01T01:19:04.171Z,0
2018-07-01T01:20:05.815Z,0
2018-07-01T01:21:07.470Z,0
2018-07-01T01:22:09.142Z,0
2018-07-01T01:23:10.795Z,0
2018-07-01T01:24:12.450Z,0
2018-07-01T01:25:14.108Z,0
2018-07-01T01:26:15.758Z,0
2018-07-01T01:27:17.422Z,0
2018-07-01T01:28:19.073Z,0
2018-07-01T01:29:20.730Z,0
2018-07-01T01:30:22.388Z,0
2018-07-01T01:31:24.040Z,0
2018-07-01T01:32:25.703Z,0
2018-07-01T01:33:27.359Z,0
2018-07-01T01:34:29.009Z,0
2018-07-01T01:35:30.676Z,0
2018-07-01T01:36:32.315Z,0
2018-07-01T01:37:33.967Z,0
2018-07-01T01:38:35.622Z,0
2018-07-01T01:39:37.297Z,0
2018-07-01T01:40:38.948Z,0
2018-07-01T01:41:40.605Z,0
2018-07-01T01:42:42.258Z,0
2018-07-01T01:43:43.910Z,0
2018-07-01T01:44:45.566Z,0
2018-07-01T01:45:47.229Z,0
2018-07-01T01:46:48.877Z,0
2018-07-01T01:47:50.540Z,0
2018-07-01T01:48:52.196Z,0
2018-07-01T01:49:53.854Z,0
2018-07-01T01:50:55.499Z,0
2018-07-01T01:51:57.160Z,0
2018-07-01T01:52:58.869Z,0
2018-07-01T01:54:00.523Z,0
2018-07-01T01:55:02.188Z,0
2018-07-01T02:01:06.827Z,0
2018-07-01T02:02:08.482Z,0
2018-07-01T02:04:00.392Z,0
2018-07-01T02:05:02.039Z,0
2018-07-01T02:06:53.978Z,0
2018-07-01T02:07:55.631Z,0
2018-07-01T02:09:47.543Z,0
2018-07-01T02:10:49.197Z,0
2018-07-01T02:12:41.091Z,0
2018-07-01T02:13:42.764Z,0
2018-07-01T02:14:44.411Z,0
2018-07-01T02:15:46.079Z,0
2018-07-01T02:16:47.821Z,0
2018-07-01T02:17:49.476Z,0
2018-07-01T02:18:51.143Z,0
2018-07-01T02:19:52.803Z,0
2018-07-01T02:20:54.453Z,0
2018-07-01T02:21:56.107Z,0
2018-07-01T02:22:57.756Z,0
2018-07-01T02:23:59.427Z,0
2018-07-01T02:25:01.081Z,0
2018-07-01T02:26:02.732Z,0
2018-07-01T02:27:04.397Z,4
2018-07-01T02:28:06.043Z,4
2018-07-01T02:29:07.713Z,4
2018-07-01T02:30:09.358Z,0
2018-07-01T02:31:11.025Z,4
2018-07-01T02:32:12.682Z,4
2018-07-01T02:33:14.326Z,4
2018-07-01T02:34:15.984Z,4
2018-07-01T02:35:17.736Z,4
2018-07-01T02:36:19.371Z,4
2018-07-01T02:37:21.026Z,8
2018-07-01T02:38:22.688Z,4
2018-07-01T02:39:24.347Z,8
2018-07-01T02:40:26.007Z,8
2018-07-01T02:41:27.664Z,12
2018-07-01T02:42:29.311Z,12
2018-07-01T02:43:30.972Z,16
2018-07-01T02:44:32.639Z,16
2018-07-01T02:45:34.298Z,20
2018-07-01T02:46:35.948Z,20
2018-07-01T02:47:37.610Z,20
2018-07-01T02:48:39.259Z,24
2018-07-01T02:49:40.914Z,28
2018-07-01T02:50:42.578Z,32
2018-07-01T02:51:44.250Z,40
2018-07-01T02:52:45.908Z,44
2018-07-01T02:53:47.591Z,48
2018-07-01T02:54:49.172Z,56
2018-07-01T02:55:50.828Z,60
2018-07-01T02:56:52.493Z,68
2018-07-01T02:57:54.147Z,80
2018-07-01T02:58:55.838Z,88
2018-07-01T02:59:57.490Z,96
2018-07-01T03:00:59.153Z,104
2018-07-01T03:02:00.812Z,120
2018-07-01T03:03:02.470Z,132
2018-07-01T03:04:04.123Z,148
2018-07-01T03:05:05.804Z,160
2018-07-01T03:06:07.463Z,180
2018-07-01T03:07:09.119Z,200
2018-07-01T03:08:10.780Z,212
2018-07-01T03:09:12.430Z,232
2018-07-01T03:10:14.085Z,252
2018-07-01T03:11:15.748Z,276
2018-07-01T03:12:17.407Z,300
2018-07-01T03:13:19.104Z,328
2018-07-01T03:14:20.760Z,356
2018-07-01T03:15:22.426Z,384
2018-07-01T03:16:24.094Z,424
2018-07-01T03:17:25.745Z,448
2018-07-01T03:18:27.397Z,480
2018-07-01T03:19:29.061Z,516
2018-07-01T03:20:30.725Z,552
2018-07-01T03:21:32.393Z,592
2018-07-01T03:22:34.049Z,628
2018-07-01T03:23:35.709Z,660
2018-07-01T03:24:37.377Z,692
2018-07-01T03:25:39.027Z,728
2018-07-01T03:26:40.682Z,768
2018-07-01T03:27:42.337Z,804
2018-07-01T03:28:43.992Z,848
2018-07-01T03:29:45.634Z,888
2018-07-01T03:30:47.290Z,940
2018-07-01T03:31:48.954Z,972
2018-07-01T03:32:50.612Z,1028
2018-07-01T03:33:52.273Z,1064
2018-07-01T03:34:53.931Z,1116
2018-07-01T03:35:55.586Z,1160
2018-07-01T03:36:57.245Z,1216
2018-07-01T03:37:58.913Z,1260
2018-07-01T03:39:00.580Z,1304
2018-07-01T03:40:02.243Z,1352
2018-07-01T03:41:03.889Z,1408
2018-07-01T03:42:05.588Z,1456
2018-07-01T03:43:07.238Z,1476
2018-07-01T03:44:08.895Z,1536
2018-07-01T03:45:10.551Z,1560
2018-07-01T03:46:12.210Z,1616
2018-07-01T03:47:13.869Z,1676
2018-07-01T03:48:15.526Z,1692
2018-07-01T03:49:17.174Z,1764
2018-07-01T03:50:18.879Z,1800
2018-07-01T03:51:20.451Z,1804
2018-07-01T03:52:22.109Z,1868
2018-07-01T03:53:23.770Z,1928
2018-07-01T03:54:25.419Z,1964
2018-07-01T03:55:27.073Z,2028
2018-07-01T03:56:28.733Z,2044
2018-07-01T03:57:30.379Z,2048
2018-07-01T03:58:32.033Z,2096
2018-07-01T03:59:33.704Z,2132
2018-07-01T04:00:35.409Z,2184
2018-07-01T04:01:37.024Z,2200
2018-07-01T04:02:38.681Z,2244
2018-07-01T04:03:40.331Z,2300
2018-07-01T04:04:41.989Z,2320
2018-07-01T04:05:43.643Z,2376
2018-07-01T04:06:45.300Z,2396
2018-07-01T04:07:46.961Z,2476
2018-07-01T04:08:48.617Z,2464
2018-07-01T04:09:50.270Z,2512
2018-07-01T04:10:51.931Z,2552
2018-07-01T04:11:53.583Z,2564
2018-07-01T04:12:55.594Z,2612
2018-07-01T04:13:57.250Z,2648
2018-07-01T04:14:58.912Z,2676
2018-07-01T04:16:00.577Z,2704
2018-07-01T04:17:02.245Z,2788
2018-07-01T04:18:03.884Z,2784
2018-07-01T04:19:05.574Z,2812
2018-07-01T04:20:07.231Z,2848
2018-07-01T04:21:08.895Z,2880
2018-07-01T04:22:10.556Z,2968
2018-07-01T04:23:12.224Z,2964
2018-07-01T04:24:13.888Z,2980
2018-07-01T04:25:15.552Z,3028
2018-07-01T04:26:17.202Z,3240
2018-07-01T04:27:18.873Z,3964
2018-07-01T04:28:20.531Z,5040
2018-07-01T04:29:22.187Z,6616
2018-07-01T04:30:23.847Z,7784
2018-07-01T04:31:25.508Z,7956
2018-07-01T04:32:27.189Z,8120
2018-07-01T04:33:28.839Z,8268
2018-07-01T04:34:30.511Z,8428
2018-07-01T04:35:32.186Z,8612
2018-07-01T04:36:33.839Z,8596
2018-07-01T04:37:35.502Z,8508
2018-07-01T04:38:37.154Z,8584
2018-07-01T04:39:39.067Z,8732
2018-07-01T04:40:40.736Z,8872
2018-07-01T04:41:42.402Z,8936
2018-07-01T04:42:44.068Z,8900
2018-07-01T04:43:45.725Z,9308
2018-07-01T04:44:47.882Z,9284
2018-07-01T04:45:49.546Z,9272
2018-07-01T04:46:51.212Z,9364
2018-07-01T04:47:52.885Z,9400
2018-07-01T04:48:54.547Z,9608
2018-07-01T04:49:56.204Z,9416
2018-07-01T04:50:57.862Z,9716
2018-07-01T04:51:59.526Z,9688
2018-07-01T04:53:01.190Z,9844
2018-07-01T04:54:02.867Z,10016
2018-07-01T04:55:04.598Z,10124
2018-07-01T04:56:06.266Z,10068
2018-07-01T04:57:07.944Z,10152
2018-07-01T04:58:09.612Z,10252
2018-07-01T04:59:11.273Z,10424
2018-07-01T05:00:12.943Z,10736
2018-07-01T05:01:14.594Z,10892
2018-07-01T05:02:16.556Z,11116
2018-07-01T05:03:18.135Z,11728
2018-07-01T05:04:19.825Z,12072
2018-07-01T05:05:21.492Z,11916
2018-07-01T05:06:23.153Z,11444
2018-07-01T05:07:24.834Z,11316
2018-07-01T05:08:26.508Z,11356
2018-07-01T05:09:28.175Z,11556
2018-07-01T05:10:29.844Z,11892
2018-07-01T05:11:31.512Z,12108
2018-07-01T05:12:33.184Z,12448
2018-07-01T05:13:34.843Z,12584
2018-07-01T05:14:36.510Z,12840
2018-07-01T05:15:38.179Z,13004
2018-07-01T05:16:39.858Z,12828
2018-07-01T05:17:41.512Z,13148
2018-07-01T05:18:43.192Z,13472
2018-07-01T05:19:44.867Z,13696
2018-07-01T05:20:46.524Z,13720
2018-07-01T05:21:48.189Z,13804
2018-07-01T05:22:49.873Z,13468
2018-07-01T05:23:51.544Z,13760
2018-07-01T05:24:53.225Z,14500
2018-07-01T05:25:54.894Z,15584
2018-07-01T05:26:56.557Z,16384
2018-07-01T05:27:58.290Z,16768
2018-07-01T05:28:59.950Z,16864
2018-07-01T05:30:01.614Z,17120
2018-07-01T05:31:03.299Z,17728
2018-07-01T05:32:04.999Z,17760
2018-07-01T05:33:06.669Z,18496
2018-07-01T05:34:08.337Z,19200
2018-07-01T05:35:10.006Z,19936
2018-07-01T05:36:11.678Z,20576
2018-07-01T05:37:13.329Z,21280
2018-07-01T05:38:14.992Z,22272
2018-07-01T05:39:16.658Z,23392
2018-07-01T05:40:18.325Z,26240
2018-07-01T05:41:20.005Z,29248
2018-07-01T05:42:21.663Z,31712
2018-07-01T05:43:23.317Z,32512
2018-07-01T05:44:24.991Z,30720
2018-07-01T05:45:26.682Z,27040
2018-07-01T05:46:28.348Z,23712
2018-07-01T05:47:30.025Z,21632
2018-07-01T05:48:31.691Z,20096
2018-07-01T05:49:33.358Z,19136
2018-07-01T05:50:35.020Z,18688
2018-07-01T05:51:36.682Z,18176
2018-07-01T05:52:38.351Z,17760
2018-07-01T05:53:40.018Z,17344
2018-07-01T05:54:41.694Z,17152
2018-07-01T05:55:43.376Z,17152
2018-07-01T06:01:55.585Z,17920
2018-07-01T06:02:57.250Z,18112
2018-07-01T06:04:49.164Z,19776
2018-07-01T06:05:50.827Z,22400
2018-07-01T06:07:42.719Z,29792
2018-07-01T06:08:44.459Z,32672
2018-07-01T06:10:36.796Z,35616
2018-07-01T06:11:38.463Z,35744
2018-07-01T06:13:30.404Z,39616
2018-07-01T06:14:32.138Z,41600
2018-07-01T06:16:24.058Z,41056
2018-07-01T06:17:25.740Z,42464
2018-07-01T06:19:17.626Z,44544
2018-07-01T06:20:19.307Z,46784
2018-07-01T06:21:20.974Z,49504
2018-07-01T06:22:22.635Z,50912
2018-07-01T06:23:24.303Z,49472
2018-07-01T06:24:25.978Z,49984
2018-07-01T06:25:27.643Z,50976
2018-07-01T06:26:29.312Z,51040
2018-07-01T06:27:30.986Z,51680
2018-07-01T06:28:32.657Z,51680
2018-07-01T06:29:34.320Z,48736
2018-07-01T06:30:36.003Z,46848
2018-07-01T06:31:37.676Z,47840
2018-07-01T06:32:39.362Z,51488
2018-07-01T06:33:41.039Z,53568
2018-07-01T06:34:42.703Z,55552
2018-07-01T06:35:44.364Z,57408
2018-07-01T06:36:46.041Z,58400
2018-07-01T06:37:47.721Z,59104
2018-07-01T06:38:49.386Z,59648
2018-07-01T06:39:51.056Z,59840
2018-07-01T06:40:52.733Z,61376
2018-07-01T06:41:54.474Z,61120
2018-07-01T06:42:56.107Z,60704
2018-07-01T06:43:57.789Z,62752
2018-07-01T06:44:59.466Z,63104
2018-07-01T06:46:01.121Z,62144
2018-07-01T06:47:02.807Z,61984
2018-07-01T06:48:04.476Z,62272
2018-07-01T06:49:06.146Z,63456
2018-07-01T06:50:07.810Z,66592
2018-07-01T06:51:09.486Z,67296
2018-07-01T06:52:11.158Z,67360
2018-07-01T06:53:12.829Z,68000
2018-07-01T06:54:14.555Z,68736
2018-07-01T06:55:16.230Z,70112
2018-07-01T06:56:17.930Z,71232
2018-07-01T06:57:19.588Z,70784
2018-07-01T06:58:21.256Z,68704
2018-07-01T06:59:22.932Z,60192
2018-07-01T07:00:24.598Z,53440
2018-07-01T07:01:27.028Z,61568
2018-07-01T07:02:28.734Z,67552
2018-07-01T07:03:30.366Z,70144
2018-07-01T07:04:32.033Z,73088
2018-07-01T07:05:33.712Z,74400
2018-07-01T07:06:35.383Z,75392
2018-07-01T07:07:37.053Z,76256
2018-07-01T07:08:38.726Z,73152
2018-07-01T07:09:40.435Z,73632
2018-07-01T07:10:42.103Z,79648
2018-07-01T07:11:43.779Z,82752
2018-07-01T07:12:45.444Z,80128
2018-07-01T07:13:47.119Z,81888
2018-07-01T07:14:48.785Z,84416
2018-07-01T07:15:50.450Z,84864
2018-07-01T07:16:52.129Z,84448
2018-07-01T07:17:53.786Z,85600
2018-07-01T07:18:55.469Z,87648
2018-07-01T07:19:57.151Z,88352
2018-07-01T07:20:58.817Z,86912
2018-07-01T07:22:00.494Z,89856
2018-07-01T07:23:02.170Z,92448
2018-07-01T07:24:03.840Z,90208
2018-07-01T07:25:05.535Z,90656
2018-07-01T07:26:07.206Z,92160
2018-07-01T07:27:08.886Z,93440
2018-07-01T07:28:10.561Z,92288
2018-07-01T07:29:12.231Z,91264
2018-07-01T07:30:13.905Z,81504
2018-07-01T07:31:15.576Z,69952
2018-07-01T07:32:17.275Z,79552
2018-07-01T07:33:18.957Z,89568
2018-07-01T07:34:20.623Z,86752
2018-07-01T07:35:22.299Z,81824
2018-07-01T07:36:23.997Z,85632
2018-07-01T07:37:25.677Z,88800
2018-07-01T07:38:27.357Z,82720
2018-07-01T07:39:29.022Z,81696
2018-07-01T07:40:30.700Z,92000
2018-07-01T07:41:32.365Z,96192
2018-07-01T07:42:34.033Z,95968
2018-07-01T07:43:35.704Z,95456
2018-07-01T07:44:37.390Z,94016
2018-07-01T07:45:39.061Z,93632
2018-07-01T07:46:40.734Z,93952
2018-07-01T07:47:42.406Z,94464
2018-07-01T07:48:44.091Z,91456
2018-07-01T07:49:45.768Z,88192
2018-07-01T07:50:47.428Z,90496
2018-07-01T07:51:49.103Z,90624
2018-07-01T07:52:50.778Z,91008
2018-07-01T07:53:52.454Z,90080
2018-07-01T07:54:54.135Z,87328
2018-07-01T07:55:55.797Z,83424
2018-07-01T07:56:57.472Z,84160
2018-07-01T07:57:59.146Z,87712
2018-07-01T07:59:00.817Z,88384
2018-07-01T08:00:02.494Z,86976
2018-07-01T08:01:04.173Z,87456
2018-07-01T08:02:05.884Z,87712
2018-07-01T08:03:07.540Z,87296
2018-07-01T08:04:09.215Z,88224
2018-07-01T08:05:10.896Z,91296
2018-07-01T08:06:12.576Z,91936
2018-07-01T08:07:14.281Z,90144
2018-07-01T08:08:15.921Z,87008
2018-07-01T08:09:18.211Z,87776
2018-07-01T08:10:20.798Z,91264
2018-07-01T08:11:22.517Z,90976
2018-07-01T08:12:24.927Z,90624
2018-07-01T08:13:26.596Z,87968
2018-07-01T08:14:28.274Z,86112
2018-07-01T08:15:29.943Z,87808
2018-07-01T08:16:31.631Z,88928
2018-07-01T08:17:33.894Z,88384
2018-07-01T08:18:35.564Z,88896
2018-07-01T08:19:37.257Z,89056
2018-07-01T08:20:38.952Z,90080
2018-07-01T08:21:40.619Z,90624
2018-07-01T08:22:42.298Z,88384
2018-07-01T08:23:43.964Z,89024
2018-07-01T08:24:45.648Z,90688
2018-07-01T08:25:47.334Z,86080
2018-07-01T08:26:49.007Z,84000
2018-07-01T08:27:50.684Z,88608
2018-07-01T08:28:52.410Z,91616
2018-07-01T08:29:54.089Z,91456
2018-07-01T08:30:55.761Z,89120
2018-07-01T08:31:57.437Z,93056
2018-07-01T08:32:59.113Z,97344
2018-07-01T08:34:00.786Z,98688
2018-07-01T08:35:02.457Z,97728
2018-07-01T08:36:04.142Z,99776
2018-07-01T08:37:05.838Z,100096
2018-07-01T08:38:07.585Z,102432
2018-07-01T08:39:10.114Z,107136
2018-07-01T08:40:11.790Z,107872
2018-07-01T08:41:13.475Z,107584
2018-07-01T08:42:15.155Z,107040
2018-07-01T08:43:16.841Z,105984
2018-07-01T08:44:18.532Z,109824
2018-07-01T08:45:20.202Z,111648
2018-07-01T08:46:21.906Z,113024
2018-07-01T08:47:23.572Z,116832
2018-07-01T08:48:25.243Z,115488
2018-07-01T08:49:26.924Z,115296
2018-07-01T08:50:28.597Z,116480
2018-07-01T08:51:30.280Z,117824
2018-07-01T08:52:32.083Z,117760
2018-07-01T08:53:34.600Z,117376
2018-07-01T08:54:36.249Z,118368
2018-07-01T08:55:37.929Z,120448
2018-07-01T08:56:39.604Z,122400
2018-07-01T08:57:41.298Z,124160
2018-07-01T08:58:42.982Z,128000
2018-07-01T08:59:44.669Z,128384
2018-07-01T09:00:46.352Z,129344
2018-07-01T09:01:48.034Z,127840
2018-07-01T09:02:49.713Z,126464
2018-07-01T09:03:51.388Z,126496
2018-07-01T09:04:53.068Z,131360
2018-07-01T09:05:54.752Z,135456
2018-07-01T09:06:56.439Z,137152
2018-07-01T09:07:58.114Z,137856
2018-07-01T09:08:59.794Z,141984
2018-07-01T09:10:01.471Z,141600
2018-07-01T09:11:03.155Z,139392
2018-07-01T09:12:04.840Z,142400
2018-07-01T09:13:06.547Z,144384
2018-07-01T09:14:08.941Z,140448
2018-07-01T09:15:10.969Z,137408
2018-07-01T09:16:12.401Z,137472
2018-07-01T09:17:14.119Z,141024
2018-07-01T09:18:15.718Z,141760
2018-07-01T09:19:17.400Z,142624
2018-07-01T09:20:19.976Z,143840
2018-07-01T09:21:22.518Z,142016
2018-07-01T09:22:24.200Z,138240
2018-07-01T09:23:25.960Z,140896
2018-07-01T09:24:27.654Z,144288
2018-07-01T09:25:29.387Z,146496
2018-07-01T09:26:32.887Z,147264
2018-07-01T09:27:34.606Z,145760
2018-07-01T09:28:36.296Z,142304
2018-07-01T09:29:38.018Z,139744
2018-07-01T09:30:39.722Z,140256
2018-07-01T09:31:41.471Z,141952
2018-07-01T09:32:43.264Z,143808
2018-07-01T09:33:44.952Z,144384
2018-07-01T09:34:46.983Z,140160
2018-07-01T09:35:48.744Z,136672
2018-07-01T09:36:50.418Z,135648
2018-07-01T09:37:52.917Z,135296
2018-07-01T09:38:54.612Z,135168
2018-07-01T09:39:56.902Z,137120
2018-07-01T09:40:58.644Z,133504
2018-07-01T09:42:00.982Z,130336
2018-07-01T09:43:02.705Z,129632
2018-07-01T09:44:04.734Z,129664
2018-07-01T09:45:06.406Z,127104
2018-07-01T09:46:08.904Z,125216
2018-07-01T09:47:10.593Z,124768
2018-07-01T09:48:12.965Z,123552
2018-07-01T09:49:14.861Z,122272
2018-07-01T09:50:17.896Z,121312
2018-07-01T09:51:19.619Z,121248
2018-07-01T09:52:21.933Z,118944
2018-07-01T09:53:23.549Z,117440
2018-07-01T09:54:25.221Z,115968
2018-07-01T09:55:26.900Z,112864
2018-07-01T10:01:38.331Z,103936
2018-07-01T10:02:40.277Z,104288
2018-07-01T10:03:41.950Z,104544
2018-07-01T10:04:43.852Z,102400
2018-07-01T10:05:45.546Z,99104
2018-07-01T10:06:47.222Z,98240
2018-07-01T10:07:49.002Z,98592
2018-07-01T10:08:50.672Z,100704
2018-07-01T10:09:52.581Z,102304
2018-07-01T10:10:54.260Z,101440
2018-07-01T10:11:56.328Z,98048
2018-07-01T10:12:57.990Z,94656
2018-07-01T10:13:59.971Z,94336
2018-07-01T10:15:01.651Z,94368
2018-07-01T10:16:03.389Z,94432
2018-07-01T10:17:05.084Z,94592
2018-07-01T10:18:06.764Z,97440
2018-07-01T10:19:08.893Z,96640
2018-07-01T10:20:10.555Z,98304
2018-07-01T10:21:12.233Z,96800
2018-07-01T10:22:13.917Z,96768
2018-07-01T10:23:15.597Z,97344
2018-07-01T10:24:17.274Z,98528
2018-07-01T10:25:18.965Z,99072
2018-07-01T10:26:20.642Z,98784
2018-07-01T10:27:22.320Z,98208
2018-07-01T10:28:24.026Z,99328
2018-07-01T10:29:25.743Z,97184
2018-07-01T10:30:27.440Z,96896
2018-07-01T10:31:29.122Z,97120
2018-07-01T10:32:30.845Z,98272
2018-07-01T10:33:32.800Z,100960
2018-07-01T10:34:34.469Z,102752
2018-07-01T10:35:36.157Z,106048
2018-07-01T10:36:37.858Z,107360
2018-07-01T10:37:39.535Z,106464
2018-07-01T10:38:41.669Z,108352
2018-07-01T10:39:43.431Z,110656
2018-07-01T10:40:45.110Z,110560
2018-07-01T10:41:46.999Z,110784
2018-07-01T10:42:48.669Z,112288
2018-07-01T10:43:50.357Z,114976
2018-07-01T10:44:52.029Z,115488
2018-07-01T10:45:53.769Z,114880
2018-07-01T10:46:55.406Z,116448
2018-07-01T10:47:57.266Z,119744
2018-07-01T10:48:58.960Z,121056
2018-07-01T10:50:00.647Z,124448
2018-07-01T10:51:02.347Z,128704
2018-07-01T10:52:04.036Z,128576
2018-07-01T10:53:05.737Z,127424
2018-07-01T10:54:07.463Z,130368
2018-07-01T10:55:09.141Z,131328
2018-07-01T10:56:10.827Z,130176
2018-07-01T10:57:12.510Z,131808
2018-07-01T10:58:14.222Z,131872
2018-07-01T10:59:15.912Z,129856
2018-07-01T11:00:18.067Z,124416
2018-07-01T11:01:19.716Z,126656
2018-07-01T11:02:21.521Z,132384
2018-07-01T11:03:23.216Z,138144
2018-07-01T11:04:24.905Z,137056
2018-07-01T11:05:26.569Z,136128
2018-07-01T11:06:28.332Z,137856
2018-07-01T11:07:30.016Z,142688
2018-07-01T11:08:31.698Z,141664
2018-07-01T11:09:33.446Z,137568
2018-07-01T11:10:35.196Z,133952
2018-07-01T11:11:37.046Z,138176
2018-07-01T11:12:38.727Z,145216
2018-07-01T11:13:40.446Z,146848
2018-07-01T11:14:42.155Z,145056
2018-07-01T11:15:43.851Z,143936
2018-07-01T11:16:45.528Z,146400
2018-07-01T11:17:47.206Z,151680
2018-07-01T11:18:48.891Z,156768
2018-07-01T11:19:50.583Z,157280
2018-07-01T11:20:52.265Z,156128
2018-07-01T11:21:53.938Z,156640
2018-07-01T11:22:55.626Z,149920
2018-07-01T11:23:57.305Z,145184
2018-07-01T11:24:58.985Z,159648
2018-07-01T11:26:00.667Z,148768
2018-07-01T11:27:02.562Z,155232
2018-07-01T11:28:04.027Z,158112
2018-07-01T11:29:05.727Z,159232
2018-07-01T11:30:07.415Z,157152
2018-07-01T11:31:09.081Z,155808
2018-07-01T11:32:10.767Z,155104
2018-07-01T11:33:12.433Z,154048
2018-07-01T11:34:14.174Z,148352
2018-07-01T11:35:15.797Z,153024
2018-07-01T11:36:17.477Z,158528
2018-07-01T11:37:19.162Z,163520
2018-07-01T11:38:20.836Z,164544
2018-07-01T11:39:22.508Z,164320
2018-07-01T11:40:24.197Z,164832
2018-07-01T11:41:25.876Z,161568
2018-07-01T11:42:27.597Z,160928
2018-07-01T11:43:29.281Z,156096
2018-07-01T11:44:30.989Z,153248
2018-07-01T11:45:32.647Z,154624
2018-07-01T11:46:34.329Z,158560
2018-07-01T11:47:36.005Z,153536
2018-07-01T11:48:37.697Z,145088
2018-07-01T11:49:39.378Z,146880
2018-07-01T11:50:41.134Z,151008
2018-07-01T11:51:42.815Z,147136
2018-07-01T11:52:44.485Z,143840
2018-07-01T11:53:46.172Z,145856
2018-07-01T11:54:47.850Z,0
2018-07-01T11:55:49.525Z,142496
2018-07-01T11:56:51.205Z,145408
2018-07-01T11:57:52.879Z,141504
2018-07-01T11:58:54.554Z,139904
2018-07-01T11:59:56.234Z,140736
2018-07-01T12:00:57.981Z,133696
2018-07-01T12:01:59.636Z,130464
2018-07-01T12:03:01.330Z,132416
2018-07-01T12:04:02.988Z,129504
2018-07-01T12:05:16.664Z,125248
2018-07-01T12:06:06.308Z,123136
2018-07-01T12:07:08.303Z,126816
2018-07-01T12:08:09.995Z,126720
2018-07-01T12:09:11.665Z,124928
2018-07-01T12:10:13.346Z,122304
2018-07-01T12:11:15.040Z,123168
2018-07-01T12:12:16.715Z,121280
2018-07-01T12:13:18.382Z,0
2018-07-01T12:14:20.063Z,118080
2018-07-01T12:15:21.741Z,116544
2018-07-01T12:16:23.418Z,116896
2018-07-01T12:17:25.094Z,113824
2018-07-01T12:18:26.834Z,90816
2018-07-01T12:19:28.514Z,115200
2018-07-01T12:20:30.244Z,116544
2018-07-01T12:21:32.016Z,111328
2018-07-01T12:22:33.689Z,109568
2018-07-01T12:23:35.489Z,101728
2018-07-01T12:24:37.142Z,94080
2018-07-01T12:25:38.856Z,95328
2018-07-01T12:26:40.535Z,101408
2018-07-01T12:27:42.262Z,103136
2018-07-01T12:28:43.936Z,8460
2018-07-01T12:29:45.620Z,7256
2018-07-01T12:30:47.285Z,95552
2018-07-01T12:31:48.968Z,97504
2018-07-01T12:32:50.648Z,100320
2018-07-01T12:33:52.328Z,99936
2018-07-01T12:34:54.128Z,102816
2018-07-01T12:35:55.757Z,103392
2018-07-01T12:36:57.433Z,100800
2018-07-01T12:37:59.118Z,99648
2018-07-01T12:39:00.794Z,99008
2018-07-01T12:40:02.476Z,97632
2018-07-01T12:41:04.143Z,0
2018-07-01T12:42:05.936Z,93376
2018-07-01T12:43:07.534Z,91680
2018-07-01T12:44:09.222Z,93792
2018-07-01T12:45:10.916Z,92032
2018-07-01T12:46:12.595Z,89536
2018-07-01T12:47:14.281Z,94272
2018-07-01T12:48:15.957Z,99168
2018-07-01T12:49:17.635Z,97888
2018-07-01T12:50:19.311Z,95264
2018-07-01T12:51:20.986Z,95584
2018-07-01T12:52:22.668Z,98624
2018-07-01T12:53:24.344Z,102944
2018-07-01T12:54:26.028Z,101952
2018-07-01T12:55:27.711Z,99648
2018-07-01T12:56:29.437Z,0
2018-07-01T12:57:31.055Z,112416
2018-07-01T12:58:32.734Z,99552
2018-07-01T12:59:34.406Z,99904
2018-07-01T13:00:36.080Z,99456
2018-07-01T13:01:37.763Z,103008
2018-07-01T13:02:39.721Z,106368
2018-07-01T13:03:42.043Z,110656
2018-07-01T13:04:43.731Z,112384
2018-07-01T13:05:46.339Z,114336
2018-07-01T13:06:48.020Z,114592
2018-07-01T13:07:49.712Z,114016
2018-07-01T13:08:52.174Z,113504
2018-07-01T13:09:53.843Z,109888
2018-07-01T13:10:55.520Z,111232
2018-07-01T13:11:57.241Z,112800
2018-07-01T13:12:58.891Z,112992
2018-07-01T13:14:00.599Z,113120
2018-07-01T13:15:02.278Z,113856
2018-07-01T13:16:03.950Z,116384
2018-07-01T13:17:05.666Z,116896
2018-07-01T13:18:07.336Z,117216
2018-07-01T13:19:09.030Z,119136
2018-07-01T13:20:10.714Z,120960
2018-07-01T13:21:12.403Z,121984
2018-07-01T13:22:14.099Z,121888
2018-07-01T13:23:15.782Z,122208
2018-07-01T13:24:17.475Z,124512
2018-07-01T13:25:19.234Z,131328
2018-07-01T13:26:20.773Z,128352
2018-07-01T13:27:23.234Z,127968
2018-07-01T13:28:25.570Z,133568
2018-07-01T13:29:28.238Z,131616
2018-07-01T13:30:29.928Z,128448
2018-07-01T13:31:31.609Z,122272
2018-07-01T13:32:33.293Z,117056
2018-07-01T13:33:35.020Z,125760
2018-07-01T13:34:36.710Z,130592
2018-07-01T13:35:38.386Z,129344
2018-07-01T13:36:40.079Z,130464
2018-07-01T13:37:41.759Z,97856
2018-07-01T13:38:43.448Z,55520
2018-07-01T13:39:45.121Z,44832
2018-07-01T13:40:46.818Z,43456
2018-07-01T13:41:48.515Z,43008
2018-07-01T13:42:50.231Z,42816
2018-07-01T13:43:51.928Z,42720
2018-07-01T13:44:53.637Z,42816
2018-07-01T13:45:56.011Z,43456
2018-07-01T13:46:58.695Z,43712
2018-07-01T13:48:01.876Z,43936
2018-07-01T13:49:03.576Z,44480
2018-07-01T13:50:05.327Z,44896
2018-07-01T13:51:06.907Z,45376
2018-07-01T13:52:08.596Z,45472
2018-07-01T13:53:10.303Z,45664
2018-07-01T13:54:11.982Z,45568
2018-07-01T13:55:14.280Z,46112
2018-07-01T14:01:03.355Z,46624
2018-07-01T14:02:05.066Z,46720
2018-07-01T14:03:06.729Z,48032